sensor_id;sensor_type;location;lat;lon;timestamp;pressure;altitude;pressure_sealevel;temperature;humidity
12247;BME280;6186;52.022;4.692;2023-01-04T00:01:05;101824.03;;;9.66;100.00
12247;BME280;6186;52.022;4.692;2023-01-04T00:03:32;101826.66;;;9.66;100.00
12247;BME280;6186;52.022;4.692;2023-01-04T00:05:59;101810.91;;;9.66;100.00
12247;BME280;6186;52.022;4.692;2023-01-04T00:08:24;101804.78;;;9.65;100.00
12247;BME280;6186;52.022;4.692;2023-01-04T00:10:50;101775.06;;;9.52;100.00
12247;BME280;6186;52.022;4.692;2023-01-04T00:13:15;101798.63;;;9.68;100.00
12247;BME280;6186;52.022;4.692;2023-01-04T00:15:40;101785.47;;;9.68;100.00
12247;BME280;6186;52.022;4.692;2023-01-04T00:18:06;101781.97;;;9.69;100.00
12247;BME280;6186;52.022;4.692;2023-01-04T00:20:31;101788.97;;;9.70;100.00
12247;BME280;6186;52.022;4.692;2023-01-04T00:22:57;101775.84;;;9.67;100.00
12247;BME280;6186;52.022;4.692;2023-01-04T00:25:22;101794.22;;;9.71;100.00
12247;BME280;6186;52.022;4.692;2023-01-04T00:27:49;101782.81;;;9.69;100.00
12247;BME280;6186;52.022;4.692;2023-01-04T00:30:14;101766.16;;;9.72;100.00
12247;BME280;6186;52.022;4.692;2023-01-04T00:32:40;101766.16;;;9.72;100.00
12247;BME280;6186;52.022;4.692;2023-01-04T00:35:05;101758.31;;;9.69;100.00
12247;BME280;6186;52.022;4.692;2023-01-04T00:37:30;101773.19;;;9.73;100.00
12247;BME280;6186;52.022;4.692;2023-01-04T00:39:56;101754.78;;;9.74;100.00
12247;BME280;6186;52.022;4.692;2023-01-04T00:42:21;101750.38;;;9.75;100.00
12247;BME280;6186;52.022;4.692;2023-01-04T00:44:46;101740.72;;;9.75;100.00
12247;BME280;6186;52.022;4.692;2023-01-04T00:47:12;101743.34;;;9.77;100.00
12247;BME280;6186;52.022;4.692;2023-01-04T00:49:37;101751.25;;;9.78;100.00
12247;BME280;6186;52.022;4.692;2023-01-04T00:52:02;101736.31;;;9.79;100.00
12247;BME280;6186;52.022;4.692;2023-01-04T00:54:28;101722.31;;;9.77;100.00
12247;BME280;6186;52.022;4.692;2023-01-04T00:56:53;101732.78;;;9.83;100.00
12247;BME280;6186;52.022;4.692;2023-01-04T00:59:20;101715.25;;;9.83;100.00
12247;BME280;6186;52.022;4.692;2023-01-04T01:01:46;101723.09;;;9.86;100.00
12247;BME280;6186;52.022;4.692;2023-01-04T01:04:13;101697.66;;;9.88;100.00
12247;BME280;6186;52.022;4.692;2023-01-04T01:06:39;101721.31;;;9.90;100.00
12247;BME280;6186;52.022;4.692;2023-01-04T01:09:05;101706.41;;;9.92;100.00
12247;BME280;6186;52.022;4.692;2023-01-04T01:11:30;101704.63;;;9.94;100.00
12247;BME280;6186;52.022;4.692;2023-01-04T01:13:57;101701.97;;;9.98;100.00
12247;BME280;6186;52.022;4.692;2023-01-04T01:16:24;101694.09;;;9.97;100.00
12247;BME280;6186;52.022;4.692;2023-01-04T01:18:51;101701.94;;;10.01;100.00
12247;BME280;6186;52.022;4.692;2023-01-04T01:21:19;101694.03;;;10.04;100.00
12247;BME280;6186;52.022;4.692;2023-01-04T01:23:46;101701.00;;;10.07;100.00
12247;BME280;6186;52.022;4.692;2023-01-04T01:26:17;101713.28;;;10.11;100.00
12247;BME280;6186;52.022;4.692;2023-01-04T01:28:44;101701.88;;;10.13;100.00
12247;BME280;6186;52.022;4.692;2023-01-04T01:31:17;101705.34;;;10.15;100.00
12247;BME280;6186;52.022;4.692;2023-01-04T01:33:45;101700.94;;;10.19;100.00
12247;BME280;6186;52.022;4.692;2023-01-04T01:36:12;101700.03;;;10.21;100.00
12247;BME280;6186;52.022;4.692;2023-01-04T01:38:38;101680.69;;;10.24;100.00
12247;BME280;6186;52.022;4.692;2023-01-04T01:41:04;101700.88;;;10.25;100.00
12247;BME280;6186;52.022;4.692;2023-01-04T01:43:48;101692.94;;;10.28;100.00
12247;BME280;6186;52.022;4.692;2023-01-04T01:46:15;101683.28;;;10.28;100.00
12247;BME280;6186;52.022;4.692;2023-01-04T01:48:42;101700.78;;;10.32;100.00
12247;BME280;6186;52.022;4.692;2023-01-04T01:51:15;101702.53;;;10.35;100.00
12247;BME280;6186;52.022;4.692;2023-01-04T01:53:44;101691.09;;;10.37;100.00
12247;BME280;6186;52.022;4.692;2023-01-04T01:56:11;101660.44;;;10.35;100.00
12247;BME280;6186;52.022;4.692;2023-01-04T01:58:43;101678.75;;;10.41;100.00
12247;BME280;6186;52.022;4.692;2023-01-04T02:01:10;101677.00;;;10.41;100.00
12247;BME280;6186;52.022;4.692;2023-01-04T02:03:38;101679.59;;;10.46;100.00
12247;BME280;6186;52.022;4.692;2023-01-04T02:06:07;101677.81;;;10.48;100.00
12247;BME280;6186;52.022;4.692;2023-01-04T02:08:37;101678.69;;;10.50;100.00
12247;BME280;6186;52.022;4.692;2023-01-04T02:11:03;101667.25;;;10.51;100.00
12247;BME280;6186;52.022;4.692;2023-01-04T02:13:31;101683.00;;;10.54;100.00
12247;BME280;6186;52.022;4.692;2023-01-04T02:18:58;101685.59;;;10.59;100.00
12247;BME280;6186;52.022;4.692;2023-01-04T02:24:21;101689.03;;;10.64;100.00
12247;BME280;6186;52.022;4.692;2023-01-04T02:27:35;101667.97;;;10.65;100.00
12247;BME280;6186;52.022;4.692;2023-01-04T02:36:17;101681.03;;;10.71;100.00
12247;BME280;6186;52.022;4.692;2023-01-04T02:42:08;101669.59;;;10.74;100.00
12247;BME280;6186;52.022;4.692;2023-01-04T02:44:58;101668.69;;;10.76;100.00
12247;BME280;6186;52.022;4.692;2023-01-04T02:47:35;101663.41;;;10.78;100.00
12247;BME280;6186;52.022;4.692;2023-01-04T02:56:02;101658.09;;;10.82;100.00
12247;BME280;6186;52.022;4.692;2023-01-04T02:58:43;101652.78;;;10.84;100.00
12247;BME280;6186;52.022;4.692;2023-01-04T03:01:42;101667.69;;;10.85;100.00
12247;BME280;6186;52.022;4.692;2023-01-04T03:11:01;101637.81;;;10.87;100.00
12247;BME280;6186;52.022;4.692;2023-01-04T03:13:37;101642.19;;;10.88;100.00
12247;BME280;6186;52.022;4.692;2023-01-04T03:16:10;101625.53;;;10.86;100.00
12247;BME280;6186;52.022;4.692;2023-01-04T03:18:41;101614.06;;;10.90;100.00
12247;BME280;6186;52.022;4.692;2023-01-04T03:21:10;101615.81;;;10.91;100.00
12247;BME280;6186;52.022;4.692;2023-01-04T03:23:38;101615.81;;;10.91;100.00
12247;BME280;6186;52.022;4.692;2023-01-04T03:26:25;101609.63;;;10.92;100.00
12247;BME280;6186;52.022;4.692;2023-01-04T03:29:17;101614.91;;;10.92;100.00
12247;BME280;6186;52.022;4.692;2023-01-04T03:32:07;101623.66;;;10.94;100.00
12247;BME280;6186;52.022;4.692;2023-01-04T03:34:53;101612.25;;;10.95;100.00
12247;BME280;6186;52.022;4.692;2023-01-04T03:37:51;101627.16;;;10.96;100.00
12247;BME280;6186;52.022;4.692;2023-01-04T03:40:41;101621.03;;;10.94;100.00
12247;BME280;6186;52.022;4.692;2023-01-04T03:43:32;101601.63;;;11.00;100.00
12247;BME280;6186;52.022;4.692;2023-01-04T03:46:26;101591.09;;;11.01;100.00
12247;BME280;6186;52.022;4.692;2023-01-04T03:49:31;101600.75;;;11.01;100.00
12247;BME280;6186;52.022;4.692;2023-01-04T03:52:02;101596.34;;;11.03;100.00
12247;BME280;6186;52.022;4.692;2023-01-04T03:54:40;101613.00;;;11.05;100.00
12247;BME280;6186;52.022;4.692;2023-01-04T03:57:08;101586.66;;;11.05;100.00
12247;BME280;6186;52.022;4.692;2023-01-04T03:59:40;101572.59;;;11.04;100.00
12247;BME280;6186;52.022;4.692;2023-01-04T04:02:14;101593.63;;;11.09;100.00
12247;BME280;6186;52.022;4.692;2023-01-04T04:04:43;101597.94;;;11.11;100.00
12247;BME280;6186;52.022;4.692;2023-01-04T04:07:28;101587.38;;;11.13;100.00
12247;BME280;6186;52.022;4.692;2023-01-04T04:10:12;101587.38;;;11.14;100.00
12247;BME280;6186;52.022;4.692;2023-01-04T04:12:37;101584.72;;;11.16;100.00
12247;BME280;6186;52.022;4.692;2023-01-04T04:15:03;101574.13;;;11.17;100.00
12247;BME280;6186;52.022;4.692;2023-01-04T04:17:28;101558.28;;;11.19;100.00
12247;BME280;6186;52.022;4.692;2023-01-04T04:19:53;101551.25;;;11.21;100.00
12247;BME280;6186;52.022;4.692;2023-01-04T04:22:19;101557.38;;;11.21;100.00
12247;BME280;6186;52.022;4.692;2023-01-04T04:24:44;101549.47;;;11.21;100.00
12247;BME280;6186;52.022;4.692;2023-01-04T04:27:09;101533.59;;;11.26;100.00
12247;BME280;6186;52.022;4.692;2023-01-04T04:29:35;101552.88;;;11.28;100.00
12247;BME280;6186;52.022;4.692;2023-01-04T04:32:00;101549.34;;;11.29;100.00
12247;BME280;6186;52.022;4.692;2023-01-04T04:34:25;101539.66;;;11.31;100.00
12247;BME280;6186;52.022;4.692;2023-01-04T04:36:51;101555.41;;;11.34;100.00
12247;BME280;6186;52.022;4.692;2023-01-04T04:39:16;101553.66;;;11.34;100.00
12247;BME280;6186;52.022;4.692;2023-01-04T04:41:41;101556.25;;;11.36;100.00
12247;BME280;6186;52.022;4.692;2023-01-04T04:44:17;101556.25;;;11.36;100.00
12247;BME280;6186;52.022;4.692;2023-01-04T04:46:44;101546.56;;;11.38;100.00
12247;BME280;6186;52.022;4.692;2023-01-04T04:49:10;101557.06;;;11.39;100.00
12247;BME280;6186;52.022;4.692;2023-01-04T04:51:36;101542.09;;;11.42;100.00
12247;BME280;6186;52.022;4.692;2023-01-04T04:54:03;101552.63;;;11.42;100.00
12247;BME280;6186;52.022;4.692;2023-01-04T04:56:28;101551.75;;;11.43;100.00
12247;BME280;6186;52.022;4.692;2023-01-04T04:58:54;101543.84;;;11.43;100.00
12247;BME280;6186;52.022;4.692;2023-01-04T05:01:19;101536.81;;;11.42;100.00
12247;BME280;6186;52.022;4.692;2023-01-04T05:03:45;101540.38;;;11.41;100.00
12247;BME280;6186;52.022;4.692;2023-01-04T05:06:10;101532.47;;;11.41;100.00
12247;BME280;6186;52.022;4.692;2023-01-04T05:08:36;101516.66;;;11.41;100.00
12247;BME280;6186;52.022;4.692;2023-01-04T05:11:06;101506.19;;;11.36;100.00
12247;BME280;6186;52.022;4.692;2023-01-04T05:13:32;101516.66;;;11.41;100.00
12247;BME280;6186;52.022;4.692;2023-01-04T05:15:57;101517.53;;;11.41;100.00
12247;BME280;6186;52.022;4.692;2023-01-04T05:18:22;101499.94;;;11.40;100.00
12247;BME280;6186;52.022;4.692;2023-01-04T05:20:48;101529.78;;;11.42;100.00
12247;BME280;6186;52.022;4.692;2023-01-04T05:23:15;101518.34;;;11.43;100.00
12247;BME280;6186;52.022;4.692;2023-01-04T05:25:41;101491.13;;;11.43;100.00
12247;BME280;6186;52.022;4.692;2023-01-04T05:28:07;101501.66;;;11.44;100.00
12247;BME280;6186;52.022;4.692;2023-01-04T05:30:33;101500.72;;;11.47;100.00
12247;BME280;6186;52.022;4.692;2023-01-04T05:33:26;101493.66;;;11.49;100.00
12247;BME280;6186;52.022;4.692;2023-01-04T05:35:53;101482.28;;;11.47;100.00
12247;BME280;6186;52.022;4.692;2023-01-04T05:38:19;101492.69;;;11.53;100.00
12247;BME280;6186;52.022;4.692;2023-01-04T05:40:46;101475.09;;;11.53;100.00
12247;BME280;6186;52.022;4.692;2023-01-04T05:43:12;101469.78;;;11.55;100.00
12247;BME280;6186;52.022;4.692;2023-01-04T05:45:38;101470.72;;;11.54;100.00
12247;BME280;6186;52.022;4.692;2023-01-04T05:48:04;101460.97;;;11.57;100.00
12247;BME280;6186;52.022;4.692;2023-01-04T05:50:30;101474.13;;;11.59;100.00
12247;BME280;6186;52.022;4.692;2023-01-04T05:52:55;101466.19;;;11.59;100.00
12247;BME280;6186;52.022;4.692;2023-01-04T05:55:21;101474.06;;;11.60;100.00
12247;BME280;6186;52.022;4.692;2023-01-04T05:57:46;101460.91;;;11.60;100.00
12247;BME280;6186;52.022;4.692;2023-01-04T06:00:12;101467.00;;;11.62;100.00
12247;BME280;6186;52.022;4.692;2023-01-04T06:02:39;101482.81;;;11.64;100.00
12247;BME280;6186;52.022;4.692;2023-01-04T06:05:05;101484.56;;;11.65;100.00
12247;BME280;6186;52.022;4.692;2023-01-04T06:07:31;101484.53;;;11.66;100.00
12247;BME280;6186;52.022;4.692;2023-01-04T06:09:56;101486.31;;;11.67;100.00
12247;BME280;6186;52.022;4.692;2023-01-04T06:12:22;101493.28;;;11.68;100.00
12247;BME280;6186;52.022;4.692;2023-01-04T06:14:47;101497.69;;;11.69;100.00
12247;BME280;6186;52.022;4.692;2023-01-04T06:17:13;101523.16;;;11.70;100.00
12247;BME280;6186;52.022;4.692;2023-01-04T06:19:38;101498.50;;;11.73;100.00
12247;BME280;6186;52.022;4.692;2023-01-04T06:22:03;101501.09;;;11.74;100.00
12247;BME280;6186;52.022;4.692;2023-01-04T06:24:29;101485.25;;;11.76;100.00
12247;BME280;6186;52.022;4.692;2023-01-04T06:26:54;101486.97;;;11.78;100.00
12247;BME280;6186;52.022;4.692;2023-01-04T06:29:20;101478.13;;;11.79;100.00
12247;BME280;6186;52.022;4.692;2023-01-04T06:31:45;101492.19;;;11.80;100.00
12247;BME280;6186;52.022;4.692;2023-01-04T06:34:12;101483.41;;;11.81;100.00
12247;BME280;6186;52.022;4.692;2023-01-04T06:36:38;101465.84;;;11.78;100.00
12247;BME280;6186;52.022;4.692;2023-01-04T06:39:04;101471.94;;;11.82;100.00
12247;BME280;6186;52.022;4.692;2023-01-04T06:41:29;101467.53;;;11.82;100.00
12247;BME280;6186;52.022;4.692;2023-01-04T06:43:58;101460.47;;;11.83;100.00
12247;BME280;6186;52.022;4.692;2023-01-04T06:46:26;101455.19;;;11.83;100.00
12247;BME280;6186;52.022;4.692;2023-01-04T06:48:52;101464.84;;;11.84;100.00
12247;BME280;6186;52.022;4.692;2023-01-04T06:51:19;101464.84;;;11.84;100.00
12247;BME280;6186;52.022;4.692;2023-01-04T06:53:44;101456.03;;;11.85;100.00
12247;BME280;6186;52.022;4.692;2023-01-04T06:56:10;101457.81;;;11.84;100.00
12247;BME280;6186;52.022;4.692;2023-01-04T06:58:35;101475.38;;;11.85;100.00
12247;BME280;6186;52.022;4.692;2023-01-04T07:01:01;101460.44;;;11.86;100.00
12247;BME280;6186;52.022;4.692;2023-01-04T07:03:26;101456.03;;;11.86;100.00
12247;BME280;6186;52.022;4.692;2023-01-04T07:05:51;101452.50;;;11.86;100.00
12247;BME280;6186;52.022;4.692;2023-01-04T07:08:18;101447.28;;;11.84;100.00
12247;BME280;6186;52.022;4.692;2023-01-04T07:10:43;101447.16;;;11.89;100.00
12247;BME280;6186;52.022;4.692;2023-01-04T07:13:09;101455.06;;;11.89;100.00
12247;BME280;6186;52.022;4.692;2023-01-04T07:15:34;101444.56;;;11.87;100.00
12247;BME280;6186;52.022;4.692;2023-01-04T07:18:00;101436.59;;;11.89;100.00
12247;BME280;6186;52.022;4.692;2023-01-04T07:20:25;101441.03;;;11.88;100.00
12247;BME280;6186;52.022;4.692;2023-01-04T07:22:51;101437.53;;;11.88;100.00
12247;BME280;6186;52.022;4.692;2023-01-04T07:25:17;101419.97;;;11.85;100.00
12247;BME280;6186;52.022;4.692;2023-01-04T07:27:42;101435.75;;;11.88;100.00
12247;BME280;6186;52.022;4.692;2023-01-04T07:30:08;101411.13;;;11.88;100.00
12247;BME280;6186;52.022;4.692;2023-01-04T07:32:34;101433.13;;;11.87;100.00
12247;BME280;6186;52.022;4.692;2023-01-04T07:34:59;101436.66;;;11.87;100.00
12247;BME280;6186;52.022;4.692;2023-01-04T07:37:25;101419.06;;;11.88;100.00
12247;BME280;6186;52.022;4.692;2023-01-04T07:39:50;101426.09;;;11.87;100.00
12247;BME280;6186;52.022;4.692;2023-01-04T07:42:15;101434.88;;;11.88;100.00
12247;BME280;6186;52.022;4.692;2023-01-04T07:44:42;101425.22;;;11.87;100.00
12247;BME280;6186;52.022;4.692;2023-01-04T07:47:08;101426.09;;;11.87;100.00
12247;BME280;6186;52.022;4.692;2023-01-04T07:49:34;101428.72;;;11.87;100.00
12247;BME280;6186;52.022;4.692;2023-01-04T07:51:59;101436.66;;;11.87;100.00
12247;BME280;6186;52.022;4.692;2023-01-04T07:54:24;101440.16;;;11.88;100.00
12247;BME280;6186;52.022;4.692;2023-01-04T07:56:50;101427.84;;;11.87;100.00
12247;BME280;6186;52.022;4.692;2023-01-04T07:59:17;101421.69;;;11.88;100.00
12247;BME280;6186;52.022;4.692;2023-01-04T08:01:43;101443.63;;;11.90;100.00
12247;BME280;6186;52.022;4.692;2023-01-04T08:04:10;101429.53;;;11.91;100.00
12247;BME280;6186;52.022;4.692;2023-01-04T08:06:37;101433.97;;;11.89;100.00
12247;BME280;6186;52.022;4.692;2023-01-04T08:09:03;101426.84;;;11.92;100.00
12247;BME280;6186;52.022;4.692;2023-01-04T08:11:29;101432.13;;;11.94;100.00
12247;BME280;6186;52.022;4.692;2023-01-04T08:13:54;101427.69;;;11.96;100.00
12247;BME280;6186;52.022;4.692;2023-01-04T08:18:51;101433.75;;;11.99;100.00
12247;BME280;6186;52.022;4.692;2023-01-04T08:21:17;101434.59;;;12.00;100.00
12247;BME280;6186;52.022;4.692;2023-01-04T08:23:42;101446.00;;;12.02;100.00
12247;BME280;6186;52.022;4.692;2023-01-04T08:26:10;101446.00;;;12.03;100.00
12247;BME280;6186;52.022;4.692;2023-01-04T08:28:36;101453.88;;;12.05;100.00
12247;BME280;6186;52.022;4.692;2023-01-04T08:31:07;101436.22;;;12.07;100.00
12247;BME280;6186;52.022;4.692;2023-01-04T08:33:34;101440.56;;;12.09;100.00
12247;BME280;6186;52.022;4.692;2023-01-04T08:36:17;101451.09;;;12.11;100.00
12247;BME280;6186;52.022;4.692;2023-01-04T08:38:47;101451.94;;;12.13;100.00
12247;BME280;6186;52.022;4.692;2023-01-04T08:41:13;101462.41;;;12.16;100.00
12247;BME280;6186;52.022;4.692;2023-01-04T08:43:40;101450.06;;;12.18;100.00
12247;BME280;6186;52.022;4.692;2023-01-04T08:46:06;101465.81;;;12.21;100.00
12247;BME280;6186;52.022;4.692;2023-01-04T08:48:33;101464.00;;;12.23;100.00
12247;BME280;6186;52.022;4.692;2023-01-04T08:51:00;101464.81;;;12.26;100.00
12247;BME280;6186;52.022;4.692;2023-01-04T08:53:26;101463.88;;;12.29;100.00
12247;BME280;6186;52.022;4.692;2023-01-04T08:55:52;101458.53;;;12.32;100.00
12247;BME280;6186;52.022;4.692;2023-01-04T08:58:18;101475.28;;;12.31;100.00
12247;BME280;6186;52.022;4.692;2023-01-04T09:00:44;101472.50;;;12.37;100.00
12247;BME280;6186;52.022;4.692;2023-01-04T09:03:09;101468.09;;;12.38;100.00
12247;BME280;6186;52.022;4.692;2023-01-04T09:05:34;101489.19;;;12.39;100.00
12247;BME280;6186;52.022;4.692;2023-01-04T09:08:00;101462.75;;;12.41;100.00
12247;BME280;6186;52.022;4.692;2023-01-04T09:10:25;101485.59;;;12.42;100.00
12247;BME280;6186;52.022;4.692;2023-01-04T09:12:50;101507.59;;;12.42;100.00
12247;BME280;6186;52.022;4.692;2023-01-04T09:15:16;101480.28;;;12.43;100.00
12247;BME280;6186;52.022;4.692;2023-01-04T09:17:42;101494.34;;;12.44;100.00
12247;BME280;6186;52.022;4.692;2023-01-04T09:20:08;101496.97;;;12.45;100.00
12247;BME280;6186;52.022;4.692;2023-01-04T09:22:34;101498.69;;;12.46;100.00
12247;BME280;6186;52.022;4.692;2023-01-04T09:24:59;101493.41;;;12.46;100.00
12247;BME280;6186;52.022;4.692;2023-01-04T09:27:25;101478.41;;;12.48;100.00
12247;BME280;6186;52.022;4.692;2023-01-04T09:29:50;101481.94;;;12.49;100.00
12247;BME280;6186;52.022;4.692;2023-01-04T09:32:15;101489.84;;;12.49;100.00
12247;BME280;6186;52.022;4.692;2023-01-04T09:34:41;101488.88;;;12.51;100.00
12247;BME280;6186;52.022;4.692;2023-01-04T09:37:06;101493.28;;;12.52;100.00
12247;BME280;6186;52.022;4.692;2023-01-04T09:39:32;101479.16;;;12.53;100.00
12247;BME280;6186;52.022;4.692;2023-01-04T09:41:59;101496.75;;;12.54;100.00
12247;BME280;6186;52.022;4.692;2023-01-04T09:44:48;101509.88;;;12.57;100.00
12247;BME280;6186;52.022;4.692;2023-01-04T09:50:21;101487.00;;;12.58;100.00
12247;BME280;6186;52.022;4.692;2023-01-04T09:53:10;101508.13;;;12.58;100.00
12247;BME280;6186;52.022;4.692;2023-01-04T09:55:46;101496.63;;;12.59;100.00
12247;BME280;6186;52.022;4.692;2023-01-04T09:58:35;101508.06;;;12.59;100.00
12247;BME280;6186;52.022;4.692;2023-01-04T10:03:36;101484.53;;;12.50;100.00
12247;BME280;6186;52.022;4.692;2023-01-04T10:06:09;101509.84;;;12.60;100.00
12247;BME280;6186;52.022;4.692;2023-01-04T10:08:35;101486.13;;;12.57;100.00
12247;BME280;6186;52.022;4.692;2023-01-04T10:22:24;101491.25;;;12.63;100.00
12247;BME280;6186;52.022;4.692;2023-01-04T10:27:53;101488.63;;;12.63;100.00
12247;BME280;6186;52.022;4.692;2023-01-04T10:30:49;101504.47;;;12.63;100.00
12247;BME280;6186;52.022;4.692;2023-01-04T10:33:23;101500.03;;;12.65;100.00
12247;BME280;6186;52.022;4.692;2023-01-04T10:35:51;101478.97;;;12.62;100.00
12247;BME280;6186;52.022;4.692;2023-01-04T10:38:23;101498.22;;;12.67;100.00
12247;BME280;6186;52.022;4.692;2023-01-04T10:40:58;101489.38;;;12.68;100.00
12247;BME280;6186;52.022;4.692;2023-01-04T10:43:41;101495.53;;;12.69;100.00
12247;BME280;6186;52.022;4.692;2023-01-04T10:46:17;101474.34;;;12.70;100.00
12247;BME280;6186;52.022;4.692;2023-01-04T10:48:49;101497.25;;;12.71;100.00
12247;BME280;6186;52.022;4.692;2023-01-04T10:51:28;101492.78;;;12.73;100.00
12247;BME280;6186;52.022;4.692;2023-01-04T10:53:59;101483.13;;;12.72;100.00
12247;BME280;6186;52.022;4.692;2023-01-04T10:59:29;101466.34;;;12.75;100.00
12247;BME280;6186;52.022;4.692;2023-01-04T11:02:17;101474.22;;;12.76;100.00
12247;BME280;6186;52.022;4.692;2023-01-04T11:07:37;101453.91;;;12.78;100.00
12247;BME280;6186;52.022;4.692;2023-01-04T11:10:06;101464.44;;;12.80;100.00
12247;BME280;6186;52.022;4.692;2023-01-04T11:12:34;101452.06;;;12.82;100.00
12247;BME280;6186;52.022;4.692;2023-01-04T11:15:00;101468.75;;;12.84;100.00
12247;BME280;6186;52.022;4.692;2023-01-04T11:17:25;101458.97;;;12.87;100.00
12247;BME280;6186;52.022;4.692;2023-01-04T11:19:52;101444.78;;;12.91;100.00
12247;BME280;6186;52.022;4.692;2023-01-04T11:23:03;101460.56;;;12.94;100.00
12247;BME280;6186;52.022;4.692;2023-01-04T11:25:13;101436.75;;;12.96;100.00
12247;BME280;6186;52.022;4.692;2023-01-04T11:27:50;101464.00;;;12.96;100.00
12247;BME280;6186;52.022;4.692;2023-01-04T11:30:22;101470.97;;;13.00;100.00
12247;BME280;6186;52.022;4.692;2023-01-04T11:32:51;101458.59;;;13.02;100.00
12247;BME280;6186;52.022;4.692;2023-01-04T11:35:36;101459.50;;;13.03;100.00
12247;BME280;6186;52.022;4.692;2023-01-04T11:38:27;101439.22;;;13.03;100.00
12247;BME280;6186;52.022;4.692;2023-01-04T11:41:07;101470.94;;;13.03;100.00
12247;BME280;6186;52.022;4.692;2023-01-04T11:43:39;101460.38;;;13.03;100.00
12247;BME280;6186;52.022;4.692;2023-01-04T11:46:22;101455.94;;;13.02;100.00
12247;BME280;6186;52.022;4.692;2023-01-04T11:48:51;101449.81;;;13.02;100.00
12247;BME280;6186;52.022;4.692;2023-01-04T11:51:34;101469.16;;;13.02;100.00
12247;BME280;6186;52.022;4.692;2023-01-04T11:56:38;101443.63;;;13.03;100.00
12247;BME280;6186;52.022;4.692;2023-01-04T11:59:14;101451.50;;;13.04;100.00
12247;BME280;6186;52.022;4.692;2023-01-04T12:01:45;101441.00;;;13.03;100.00
12247;BME280;6186;52.022;4.692;2023-01-04T12:04:19;101453.28;;;13.05;100.00
12247;BME280;6186;52.022;4.692;2023-01-04T12:06:58;101412.97;;;12.96;100.00
12247;BME280;6186;52.022;4.692;2023-01-04T12:09:28;101452.19;;;13.12;100.00
12247;BME280;6186;52.022;4.692;2023-01-04T12:11:57;101434.41;;;13.19;100.00
12247;BME280;6186;52.022;4.692;2023-01-04T12:14:28;101457.19;;;13.25;100.00
12247;BME280;6186;52.022;4.692;2023-01-04T12:17:17;101443.03;;;13.26;100.00
12247;BME280;6186;52.022;4.692;2023-01-04T12:19:45;101458.84;;;13.27;100.00
12247;BME280;6186;52.022;4.692;2023-01-04T12:22:24;101451.78;;;13.28;100.00
12247;BME280;6186;52.022;4.692;2023-01-04T12:24:52;101437.66;;;13.29;100.00
12247;BME280;6186;52.022;4.692;2023-01-04T12:27:18;101442.06;;;13.30;100.00
12247;BME280;6186;52.022;4.692;2023-01-04T12:29:54;101447.34;;;13.30;100.00
12247;BME280;6186;52.022;4.692;2023-01-04T12:34:51;101444.69;;;13.30;100.00
12247;BME280;6186;52.022;4.692;2023-01-04T12:45:41;101436.03;;;13.23;100.00
12247;BME280;6186;52.022;4.692;2023-01-04T12:51:24;101441.31;;;13.25;100.00
12247;BME280;6186;52.022;4.692;2023-01-04T12:53:50;101445.63;;;13.27;100.00
12247;BME280;6186;52.022;4.692;2023-01-04T12:56:16;101441.16;;;13.29;100.00
12247;BME280;6186;52.022;4.692;2023-01-04T12:58:42;101442.94;;;13.29;100.00
12247;BME280;6186;52.022;4.692;2023-01-04T13:01:27;101452.66;;;13.28;100.00
12247;BME280;6186;52.022;4.692;2023-01-04T13:04:01;101456.16;;;13.29;100.00
12247;BME280;6186;52.022;4.692;2023-01-04T13:06:28;101452.72;;;13.27;100.00
12247;BME280;6186;52.022;4.692;2023-01-04T13:08:56;101451.88;;;13.25;100.00
12247;BME280;6186;52.022;4.692;2023-01-04T13:11:44;101449.31;;;13.21;100.00
12247;BME280;6186;52.022;4.692;2023-01-04T13:14:23;101429.97;;;13.19;100.00
12247;BME280;6186;52.022;4.692;2023-01-04T13:17:20;101446.81;;;13.17;100.00
12247;BME280;6186;52.022;4.692;2023-01-04T13:19:46;101436.28;;;13.14;100.00
12247;BME280;6186;52.022;4.692;2023-01-04T13:22:25;101429.28;;;13.13;100.00
12247;BME280;6186;52.022;4.692;2023-01-04T13:24:52;101439.88;;;13.11;100.00
12247;BME280;6186;52.022;4.692;2023-01-04T13:27:20;101442.50;;;13.11;100.00
12247;BME280;6186;52.022;4.692;2023-01-04T13:29:47;101454.78;;;13.14;100.00
12247;BME280;6186;52.022;4.692;2023-01-04T13:32:23;101440.69;;;13.15;100.00
12247;BME280;6186;52.022;4.692;2023-01-04T13:34:55;101457.38;;;13.17;100.00
12247;BME280;6186;52.022;4.692;2023-01-04T13:37:59;101450.28;;;13.17;100.00
12247;BME280;6186;52.022;4.692;2023-01-04T13:40:27;101445.00;;;13.17;100.00
12247;BME280;6186;52.022;4.692;2023-01-04T13:45:54;101442.34;;;13.17;100.00
12247;BME280;6186;52.022;4.692;2023-01-04T13:48:29;101442.22;;;13.23;100.00
12247;BME280;6186;52.022;4.692;2023-01-04T13:53:28;101435.94;;;13.28;100.00
12247;BME280;6186;52.022;4.692;2023-01-04T13:55:56;101429.72;;;13.29;100.00
12247;BME280;6186;52.022;4.692;2023-01-04T13:58:27;101431.56;;;13.27;100.00
12247;BME280;6186;52.022;4.692;2023-01-04T14:00:57;101438.66;;;13.25;100.00
12247;BME280;6186;52.022;4.692;2023-01-04T14:03:31;101425.50;;;13.21;100.00
12247;BME280;6186;52.022;4.692;2023-01-04T14:06:11;101421.16;;;13.20;100.00
12247;BME280;6186;52.022;4.692;2023-01-04T14:08:49;101422.97;;;13.18;100.00
12247;BME280;6186;52.022;4.692;2023-01-04T14:11:27;101413.28;;;13.17;100.00
12247;BME280;6186;52.022;4.692;2023-01-04T14:14:32;101398.34;;;13.16;100.00
12247;BME280;6186;52.022;4.692;2023-01-04T14:19:45;101415.09;;;13.15;100.00
12247;BME280;6186;52.022;4.692;2023-01-04T14:28:36;101412.56;;;13.12;100.00
12247;BME280;6186;52.022;4.692;2023-01-04T14:38:45;101438.16;;;13.10;100.00
12247;BME280;6186;52.022;4.692;2023-01-04T14:41:36;101432.88;;;13.10;100.00